Time;durP1;ratioP1;P1;durP2;ratioP2;P2;SDS_P1;SDS_P2;PMS_P1;PMS_P2;Temp;Humidity;BMP_temperature;BMP_pressure;BME280_temperature;BME280_humidity;BME280_pressure;Samples;Min_cycle;Max_cycle;Signal;HPM_P1;HPM_P2
2023/06/25 00:00:56;;;;;;;7.20;5.72;;;21.20;86.40;;;;;;4996689;28;20029;-83
2023/06/25 00:03:22;;;;;;;6.63;5.20;;;21.20;86.40;;;;;;4986602;28;20018;-83
2023/06/25 00:05:48;;;;;;;7.63;5.72;;;21.10;86.40;;;;;;4995802;28;20034;-83
2023/06/25 00:08:13;;;;;;;7.60;5.82;;;21.10;86.40;;;;;;4996832;28;20050;-83
2023/06/25 00:10:39;;;;;;;7.68;5.80;;;21.20;86.50;;;;;;4997270;28;20045;-83
2023/06/25 00:13:04;;;;;;;7.13;5.70;;;21.10;86.40;;;;;;4996049;28;20044;-83
2023/06/25 00:15:30;;;;;;;7.47;5.80;;;21.10;86.40;;;;;;4996962;28;20620;-83
2023/06/25 00:17:56;;;;;;;6.82;5.53;;;21.20;86.50;;;;;;4996811;28;20025;-82
2023/06/25 00:20:23;;;;;;;7.07;5.78;;;21.10;86.40;;;;;;4997000;28;20533;-83
2023/06/25 00:22:49;;;;;;;6.78;5.40;;;21.10;86.40;;;;;;4993097;28;20036;-83
2023/06/25 00:25:16;;;;;;;7.07;5.47;;;21.10;86.40;;;;;;4996326;28;20022;-83
2023/06/25 00:27:47;;;;;;;7.18;5.72;;;21.10;86.40;;;;;;4996568;28;20036;-83
2023/06/25 00:30:16;;;;;;;7.47;5.95;;;21.20;86.60;;;;;;4996322;28;20148;-83
2023/06/25 00:32:45;;;;;;;7.90;5.78;;;21.10;86.40;;;;;;4996188;28;20042;-83
2023/06/25 00:35:12;;;;;;;7.25;5.60;;;21.20;86.50;;;;;;4996351;28;20056;-83
2023/06/25 00:37:41;;;;;;;7.05;5.53;;;21.20;86.30;;;;;;4996291;28;20030;-83
2023/06/25 00:40:10;;;;;;;7.07;5.63;;;21.20;86.20;;;;;;4996415;28;20081;-83
2023/06/25 00:42:43;;;;;;;7.28;5.60;;;21.20;86.20;;;;;;4992615;28;20030;-83
2023/06/25 00:45:11;;;;;;;7.15;5.72;;;21.30;86.10;;;;;;4994844;28;20429;-83
2023/06/25 00:47:38;;;;;;;7.15;5.75;;;21.20;86.00;;;;;;4996180;28;20065;-83
2023/06/25 00:50:05;;;;;;;7.28;5.90;;;21.30;86.00;;;;;;4996608;28;20029;-83
2023/06/25 00:52:30;;;;;;;6.82;5.40;;;21.30;86.00;;;;;;4995578;28;20490;-82
2023/06/25 00:54:56;;;;;;;7.00;6.00;;;21.30;86.00;;;;;;4996294;28;20058;-83
2023/06/25 00:57:22;;;;;;;7.18;5.75;;;21.30;86.00;;;;;;4996121;28;20026;-83
2023/06/25 00:59:48;;;;;;;7.50;6.18;;;21.30;86.00;;;;;;4996202;28;20426;-83
2023/06/25 01:02:23;;;;;;;7.35;5.97;;;21.20;85.90;;;;;;4995266;28;20056;-83
2023/06/25 01:05:16;;;;;;;7.78;6.25;;;21.20;86.20;;;;;;4996047;28;20068;-83
2023/06/25 01:07:44;;;;;;;6.68;5.53;;;21.20;86.30;;;;;;4999055;28;20034;-83
2023/06/25 01:10:13;;;;;;;6.72;5.53;;;21.20;86.40;;;;;;4996148;28;20034;-83
2023/06/25 01:12:39;;;;;;;7.40;5.72;;;21.20;86.40;;;;;;4995505;28;20521;-83
2023/06/25 01:15:06;;;;;;;7.47;5.97;;;21.30;86.50;;;;;;4995651;28;20026;-83
2023/06/25 01:17:32;;;;;;;7.20;5.70;;;21.20;86.50;;;;;;4995375;28;20426;-83
2023/06/25 01:19:57;;;;;;;7.28;5.55;;;21.10;86.50;;;;;;4995974;28;20148;-83
2023/06/25 01:22:30;;;;;;;7.68;6.07;;;21.10;86.50;;;;;;4990804;28;20081;-83
2023/06/25 01:24:57;;;;;;;6.70;5.60;;;21.10;86.50;;;;;;5013303;28;20213;-83
2023/06/25 01:27:22;;;;;;;7.50;6.20;;;21.10;86.50;;;;;;4995485;28;20112;-83
2023/06/25 01:29:49;;;;;;;7.13;6.07;;;21.10;86.50;;;;;;4995091;28;20076;-83
2023/06/25 01:32:15;;;;;;;7.57;6.00;;;21.10;86.60;;;;;;4992211;28;20052;-83
2023/06/25 01:34:41;;;;;;;7.78;5.88;;;21.10;86.60;;;;;;4995567;28;20026;-83
2023/06/25 01:37:06;;;;;;;6.85;5.63;;;21.10;86.60;;;;;;4995171;28;20025;-83
2023/06/25 01:39:32;;;;;;;7.60;5.88;;;21.10;86.60;;;;;;4995369;28;20033;-83
2023/06/25 01:41:58;;;;;;;7.20;5.50;;;21.10;86.60;;;;;;4992556;28;20026;-83
2023/06/25 01:44:30;;;;;;;6.95;5.90;;;21.10;86.60;;;;;;4996666;28;20025;-83
2023/06/25 01:46:56;;;;;;;7.50;6.00;;;21.10;86.60;;;;;;4994992;28;20101;-83
2023/06/25 01:49:22;;;;;;;6.53;5.43;;;21.10;86.60;;;;;;4995538;28;20049;-83
2023/06/25 01:51:48;;;;;;;7.93;5.93;;;21.10;86.50;;;;;;4994952;28;20063;-83
2023/06/25 01:54:14;;;;;;;7.93;6.88;;;21.10;86.60;;;;;;4986584;28;20026;-83
2023/06/25 01:56:40;;;;;;;7.28;5.45;;;21.10;86.70;;;;;;4994915;28;20033;-83
2023/06/25 01:59:06;;;;;;;7.07;5.78;;;21.10;86.70;;;;;;4995351;28;20030;-83
2023/06/25 02:01:31;;;;;;;7.90;6.30;;;21.10;86.70;;;;;;4994699;28;20545;-83
2023/06/25 02:03:57;;;;;;;7.18;5.88;;;21.10;86.60;;;;;;4986379;28;20026;-83
2023/06/25 02:06:22;;;;;;;7.50;6.20;;;21.20;86.50;;;;;;5012343;28;20037;-83
2023/06/25 02:08:48;;;;;;;7.35;5.60;;;21.20;86.50;;;;;;4994987;28;20045;-83
2023/06/25 02:11:13;;;;;;;8.13;5.93;;;21.20;86.40;;;;;;4992729;28;20033;-82
2023/06/25 02:13:39;;;;;;;7.30;6.25;;;21.20;86.40;;;;;;5005934;28;20113;-83
2023/06/25 02:16:04;;;;;;;7.07;5.80;;;21.20;86.30;;;;;;4984738;28;20032;-83
2023/06/25 02:18:31;;;;;;;7.63;6.20;;;21.20;86.20;;;;;;5012584;28;20048;-83
2023/06/25 02:20:57;;;;;;;7.35;5.88;;;21.20;86.20;;;;;;4993885;28;20025;-82
2023/06/25 02:25:57;;;;;;;7.03;5.82;;;21.20;86.20;;;;;;4982648;28;20058;-86
2023/06/25 02:28:23;;;;;;;7.70;5.97;;;21.20;86.20;;;;;;4978745;28;20026;-86
2023/06/25 02:30:48;;;;;;;7.22;5.93;;;21.20;86.20;;;;;;4978752;28;20030;-86
2023/06/25 02:33:14;;;;;;;7.30;5.65;;;21.20;86.30;;;;;;4979574;28;20027;-87
2023/06/25 02:35:40;;;;;;;7.00;5.85;;;21.20;86.40;;;;;;4955974;28;20484;-87
2023/06/25 02:38:06;;;;;;;7.47;6.05;;;21.20;86.50;;;;;;4959892;28;20226;-87
2023/06/25 02:40:31;;;;;;;7.78;6.68;;;21.10;86.50;;;;;;4960086;28;20023;-87
2023/06/25 02:42:57;;;;;;;7.90;5.80;;;21.10;86.60;;;;;;4960130;28;20119;-87
2023/06/25 02:45:23;;;;;;;8.20;6.43;;;21.10;86.60;;;;;;4955732;28;20041;-87
2023/06/25 02:47:49;;;;;;;7.97;6.25;;;21.10;86.70;;;;;;4959474;28;20066;-86
2023/06/25 02:50:16;;;;;;;7.00;5.78;;;21.10;86.60;;;;;;4976827;28;20034;-87
2023/06/25 02:52:42;;;;;;;7.72;6.25;;;21.10;86.70;;;;;;4959070;28;20118;-86
2023/06/25 02:55:07;;;;;;;7.93;6.13;;;21.10;86.70;;;;;;4952330;28;20035;-86
2023/06/25 02:57:33;;;;;;;7.60;6.20;;;21.10;86.70;;;;;;4980867;28;20030;-86
2023/06/25 02:59:59;;;;;;;7.63;6.10;;;21.10;86.70;;;;;;4995290;28;20376;-87
2023/06/25 03:02:25;;;;;;;7.72;6.68;;;21.00;86.70;;;;;;4981365;28;20086;-87
2023/06/25 03:04:51;;;;;;;7.50;6.20;;;21.10;86.80;;;;;;4969226;28;20051;-87
2023/06/25 03:07:16;;;;;;;8.07;6.15;;;21.10;86.90;;;;;;4961184;28;20030;-87
2023/06/25 03:09:42;;;;;;;7.53;6.38;;;21.10;86.80;;;;;;4961928;28;20027;-87
2023/06/25 03:12:08;;;;;;;7.78;6.68;;;21.00;86.80;;;;;;4961028;28;20062;-87
2023/06/25 03:14:34;;;;;;;7.22;6.40;;;21.10;86.80;;;;;;4960548;28;20031;-87
2023/06/25 03:17:00;;;;;;;7.60;6.22;;;21.10;86.80;;;;;;4958550;28;20077;-86
2023/06/25 03:19:26;;;;;;;9.43;6.78;;;21.10;86.80;;;;;;4979971;28;20422;-86
2023/06/25 03:21:51;;;;;;;7.35;6.20;;;21.10;86.90;;;;;;4997252;28;20022;-87
2023/06/25 03:24:17;;;;;;;7.82;6.38;;;21.10;86.90;;;;;;4983834;28;20053;-86
2023/06/25 03:26:42;;;;;;;7.80;6.47;;;21.10;86.90;;;;;;4949505;29;20027;-87
2023/06/25 03:29:08;;;;;;;7.50;6.40;;;21.10;86.80;;;;;;4940395;28;20373;-86
2023/06/25 03:31:33;;;;;;;8.63;6.80;;;21.10;86.80;;;;;;4940326;29;20027;-86
2023/06/25 03:33:59;;;;;;;7.80;6.47;;;21.10;86.70;;;;;;4942671;28;20027;-86
2023/06/25 03:36:24;;;;;;;7.82;6.47;;;21.20;86.60;;;;;;4952563;28;20078;-86
2023/06/25 03:38:50;;;;;;;7.82;6.70;;;21.20;86.50;;;;;;4960223;28;20045;-86
2023/06/25 03:41:15;;;;;;;7.68;6.38;;;21.20;86.50;;;;;;4980027;28;20101;-87
2023/06/25 03:43:41;;;;;;;8.27;6.60;;;21.20;86.50;;;;;;4978610;28;20038;-85
2023/06/25 03:46:06;;;;;;;7.70;6.47;;;21.20;86.40;;;;;;4951914;28;20507;-87
2023/06/25 03:48:32;;;;;;;7.90;6.85;;;21.20;86.30;;;;;;4961531;28;20038;-86
2023/06/25 03:50:58;;;;;;;7.82;6.35;;;21.20;86.30;;;;;;4961477;28;20165;-87
2023/06/25 03:53:25;;;;;;;7.55;6.60;;;21.20;86.30;;;;;;4978242;28;20033;-87
2023/06/25 03:55:50;;;;;;;7.20;6.40;;;21.20;86.30;;;;;;4960382;28;20039;-86
2023/06/25 03:58:16;;;;;;;8.00;6.65;;;21.20;86.30;;;;;;4960634;28;20417;-86
2023/06/25 04:00:41;;;;;;;7.93;6.45;;;21.20;86.40;;;;;;4960965;28;20054;-86
2023/06/25 04:03:07;;;;;;;8.07;6.78;;;21.10;86.40;;;;;;4960668;28;20407;-86
2023/06/25 04:05:32;;;;;;;7.82;6.68;;;21.10;86.40;;;;;;4949236;28;20062;-87
2023/06/25 04:07:58;;;;;;;7.80;6.60;;;21.10;86.50;;;;;;4960236;28;20637;-87
2023/06/25 04:10:23;;;;;;;7.80;6.60;;;21.10;86.60;;;;;;4960502;28;20019;-87
2023/06/25 04:12:49;;;;;;;7.13;6.07;;;21.10;86.60;;;;;;4960036;28;20073;-87
2023/06/25 04:15:14;;;;;;;7.60;6.43;;;21.10;86.60;;;;;;4945639;29;20091;-87
2023/06/25 04:17:40;;;;;;;7.85;6.95;;;21.10;86.60;;;;;;4958247;28;20034;-86
2023/06/25 04:20:06;;;;;;;8.05;6.85;;;21.10;86.60;;;;;;4995004;28;20430;-86
2023/06/25 04:22:32;;;;;;;7.82;6.82;;;21.10;86.70;;;;;;4977008;28;20027;-86
2023/06/25 04:24:58;;;;;;;7.20;6.30;;;21.10;86.70;;;;;;4956744;28;20034;-86
2023/06/25 04:27:24;;;;;;;7.70;6.85;;;21.10;86.70;;;;;;4970679;28;20033;-87
2023/06/25 04:29:49;;;;;;;7.80;6.57;;;21.10;86.80;;;;;;4978835;28;20042;-86
2023/06/25 04:32:14;;;;;;;7.95;7.05;;;21.10;86.80;;;;;;4996210;28;20030;-87
2023/06/25 04:34:40;;;;;;;8.35;6.70;;;21.10;86.80;;;;;;4961973;28;20039;-87
2023/06/25 04:37:06;;;;;;;8.48;6.50;;;21.00;86.70;;;;;;4994519;28;20027;-87
2023/06/25 04:39:31;;;;;;;7.85;6.80;;;21.10;86.80;;;;;;4962862;28;20628;-84
2023/06/25 04:41:57;;;;;;;8.35;6.75;;;21.00;86.70;;;;;;4939560;29;20058;-86
2023/06/25 04:44:23;;;;;;;8.13;6.75;;;21.00;86.70;;;;;;4944395;29;20106;-87
2023/06/25 04:46:49;;;;;;;8.38;6.50;;;21.10;86.80;;;;;;4947894;29;20119;-86
2023/06/25 04:49:15;;;;;;;7.78;6.97;;;21.00;86.70;;;;;;4958022;28;20054;-86
2023/06/25 04:51:44;;;;;;;8.23;6.95;;;21.10;86.80;;;;;;4958127;28;20031;-86
2023/06/25 04:54:10;;;;;;;7.85;7.00;;;21.10;86.80;;;;;;4974505;28;20031;-86
2023/06/25 04:56:35;;;;;;;7.18;6.18;;;21.10;86.70;;;;;;4959963;28;20031;-86
2023/06/25 04:59:01;;;;;;;7.85;6.85;;;21.10;86.70;;;;;;4958450;28;20019;-86
2023/06/25 05:01:26;;;;;;;7.80;6.43;;;21.10;86.50;;;;;;4975585;28;20034;-86
2023/06/25 05:03:52;;;;;;;7.25;6.47;;;21.20;86.50;;;;;;4955591;28;20018;-86
2023/06/25 05:06:17;;;;;;;8.57;7.10;;;21.20;86.40;;;;;;4966982;28;20121;-85
2023/06/25 05:08:42;;;;;;;8.60;6.63;;;21.20;86.30;;;;;;4975561;28;20042;-87
2023/06/25 05:11:08;;;;;;;7.88;6.43;;;21.20;86.20;;;;;;4958045;28;20114;-86
2023/06/25 05:13:35;;;;;;;7.85;7.05;;;21.20;86.20;;;;;;4973225;28;20085;-86
2023/06/25 05:16:01;;;;;;;7.53;6.28;;;21.20;86.10;;;;;;4957174;28;20039;-86
2023/06/25 05:18:26;;;;;;;8.13;7.05;;;21.20;86.10;;;;;;4957713;28;20027;-86
2023/06/25 05:20:52;;;;;;;7.53;6.72;;;21.30;86.20;;;;;;4957960;28;20114;-86
2023/06/25 05:23:17;;;;;;;8.05;7.25;;;21.30;86.20;;;;;;4957996;28;20027;-86
2023/06/25 05:25:43;;;;;;;8.70;7.80;;;21.30;86.20;;;;;;4947299;28;20038;-86
2023/06/25 05:28:08;;;;;;;9.23;6.88;;;21.20;86.10;;;;;;4957396;28;20029;-86
2023/06/25 05:30:34;;;;;;;7.47;6.28;;;21.20;86.20;;;;;;4957535;28;20492;-86
2023/06/25 05:33:00;;;;;;;7.85;6.70;;;21.20;86.20;;;;;;4975323;28;20487;-87
2023/06/25 05:35:31;;;;;;;8.02;7.13;;;21.20;86.30;;;;;;4960937;28;20042;-87
2023/06/25 05:37:57;;;;;;;7.72;6.32;;;21.20;86.30;;;;;;4960086;28;20027;-87
2023/06/25 05:40:27;;;;;;;7.97;6.95;;;21.20;86.30;;;;;;4943334;29;20539;-87
2023/06/25 05:42:54;;;;;;;8.02;6.65;;;21.20;86.40;;;;;;4959835;29;20384;-87
2023/06/25 05:45:19;;;;;;;7.60;6.78;;;21.20;86.40;;;;;;4957385;28;20090;-87
2023/06/25 05:47:45;;;;;;;7.63;6.60;;;21.20;86.40;;;;;;4961426;28;20055;-87
2023/06/25 05:50:10;;;;;;;7.68;6.55;;;21.20;86.40;;;;;;4961046;28;20039;-87
2023/06/25 05:52:36;;;;;;;8.60;7.00;;;21.20;86.40;;;;;;4960451;28;20027;-87
2023/06/25 05:55:01;;;;;;;7.65;6.65;;;21.10;86.30;;;;;;4957881;28;20041;-86
2023/06/25 05:57:27;;;;;;;8.32;7.25;;;21.20;86.40;;;;;;4945405;29;20031;-87
2023/06/25 05:59:52;;;;;;;7.72;6.57;;;21.20;86.40;;;;;;4958690;29;20067;-87
2023/06/25 06:02:18;;;;;;;7.35;6.40;;;21.20;86.40;;;;;;4956936;28;20037;-87
2023/06/25 06:04:43;;;;;;;7.88;6.72;;;21.20;86.40;;;;;;4973981;28;20089;-87
2023/06/25 06:07:08;;;;;;;7.35;6.30;;;21.20;86.30;;;;;;4965541;28;20090;-87
2023/06/25 06:09:35;;;;;;;7.40;6.40;;;21.20;86.30;;;;;;4976836;28;20648;-87
2023/06/25 06:12:01;;;;;;;7.43;6.30;;;21.20;86.20;;;;;;4959974;28;20486;-86
2023/06/25 06:14:26;;;;;;;7.68;6.53;;;21.20;86.20;;;;;;4978992;28;20057;-86
2023/06/25 06:16:52;;;;;;;7.57;6.40;;;21.20;86.20;;;;;;4959838;28;20058;-86
2023/06/25 06:19:17;;;;;;;7.63;6.60;;;21.20;86.20;;;;;;4996705;28;20022;-86
2023/06/25 06:21:43;;;;;;;7.60;6.40;;;21.20;86.10;;;;;;4979516;28;20037;-86
2023/06/25 06:24:08;;;;;;;7.65;6.50;;;21.20;86.10;;;;;;4993096;28;20046;-86
2023/06/25 06:26:35;;;;;;;8.05;6.65;;;21.20;86.10;;;;;;4986455;28;20041;-87
2023/06/25 06:29:03;;;;;;;7.30;6.38;;;21.30;86.50;;;;;;4961282;28;20094;-87
2023/06/25 06:31:32;;;;;;;7.80;6.45;;;21.30;85.80;;;;;;4961285;28;20427;-88
2023/06/25 06:33:57;;;;;;;7.85;6.70;;;21.30;85.60;;;;;;4958288;28;20031;-87
2023/06/25 06:36:23;;;;;;;8.30;6.78;;;21.40;85.60;;;;;;4981835;28;20033;-87
2023/06/25 06:38:49;;;;;;;7.57;6.40;;;21.40;85.50;;;;;;4977656;28;20180;-86
2023/06/25 06:41:15;;;;;;;7.60;6.43;;;21.40;85.40;;;;;;4977859;28;20015;-87
2023/06/25 06:43:41;;;;;;;7.65;6.18;;;21.40;85.30;;;;;;4974784;28;20038;-86
2023/06/25 06:46:06;;;;;;;8.13;6.80;;;21.50;85.30;;;;;;4954394;28;20030;-87
2023/06/25 06:48:31;;;;;;;8.10;6.88;;;21.50;85.20;;;;;;4984965;28;20026;-86
2023/06/25 06:50:57;;;;;;;7.95;6.70;;;21.50;85.20;;;;;;4977167;28;20041;-87
2023/06/25 06:53:22;;;;;;;7.30;6.40;;;21.50;85.20;;;;;;4959077;28;20077;-87
2023/06/25 06:55:48;;;;;;;7.35;6.28;;;21.50;85.20;;;;;;4984319;28;20027;-87
2023/06/25 06:58:13;;;;;;;7.40;6.40;;;21.40;85.20;;;;;;4958947;28;20046;-87
2023/06/25 07:00:39;;;;;;;8.02;6.68;;;21.40;85.20;;;;;;4976615;28;20492;-86
2023/06/25 07:03:04;;;;;;;7.75;6.70;;;21.40;85.30;;;;;;4959033;28;20074;-87
2023/06/25 07:05:30;;;;;;;7.65;6.32;;;21.40;85.30;;;;;;4953839;28;20377;-87
2023/06/25 07:07:56;;;;;;;7.80;6.50;;;21.40;85.30;;;;;;4955600;28;20033;-87
2023/06/25 07:10:21;;;;;;;7.55;6.60;;;21.40;85.40;;;;;;4976261;28;20031;-87
2023/06/25 07:12:47;;;;;;;7.68;6.30;;;21.40;85.40;;;;;;4975881;28;20081;-86
2023/06/25 07:15:12;;;;;;;7.60;6.57;;;21.40;85.40;;;;;;4957503;28;20027;-87
2023/06/25 07:17:38;;;;;;;7.68;6.47;;;21.40;85.40;;;;;;4961519;28;20431;-87
2023/06/25 07:20:03;;;;;;;7.53;6.45;;;21.40;85.30;;;;;;4978184;28;20035;-85
2023/06/25 07:22:29;;;;;;;7.53;6.20;;;21.40;85.30;;;;;;4976035;28;20070;-87
2023/06/25 07:24:54;;;;;;;7.85;6.60;;;21.40;85.20;;;;;;4958423;28;20031;-83
2023/06/25 07:27:20;;;;;;;7.70;6.38;;;21.40;85.30;;;;;;4946397;28;20031;-85
2023/06/25 07:29:45;;;;;;;7.55;6.60;;;21.50;85.30;;;;;;4975623;28;20440;-86
2023/06/25 07:32:11;;;;;;;7.85;6.75;;;21.50;85.30;;;;;;4958679;28;20050;-86
2023/06/25 07:34:36;;;;;;;7.40;5.97;;;21.50;85.30;;;;;;4950767;28;20550;-86
2023/06/25 07:37:02;;;;;;;7.22;6.07;;;21.50;85.20;;;;;;4939040;29;20023;-85
2023/06/25 07:39:31;;;;;;;7.38;6.32;;;21.50;85.20;;;;;;4938246;29;20365;-87
2023/06/25 07:41:57;;;;;;;7.45;6.32;;;21.60;85.20;;;;;;4940275;29;20034;-85
2023/06/25 07:44:23;;;;;;;7.43;6.07;;;21.60;85.20;;;;;;4941866;29;20023;-87
2023/06/25 07:46:49;;;;;;;7.35;6.28;;;21.50;85.10;;;;;;4966829;28;20109;-86
2023/06/25 07:49:15;;;;;;;7.45;6.43;;;21.60;85.10;;;;;;4957845;28;20031;-86
2023/06/25 07:51:45;;;;;;;7.60;6.03;;;21.60;85.10;;;;;;4974734;28;20415;-85
2023/06/25 07:54:11;;;;;;;6.90;5.97;;;21.60;85.00;;;;;;4954586;28;20035;-87
2023/06/25 07:56:36;;;;;;;7.18;6.18;;;21.60;84.80;;;;;;4940413;29;20027;-87
2023/06/25 07:59:02;;;;;;;7.30;6.10;;;21.70;84.70;;;;;;4948281;28;20113;-88
2023/06/25 08:01:29;;;;;;;7.50;6.30;;;21.70;84.50;;;;;;4975620;28;20031;-86
2023/06/25 08:03:55;;;;;;;7.60;6.35;;;21.80;84.40;;;;;;4955473;28;20560;-87
2023/06/25 08:06:21;;;;;;;7.35;6.00;;;22.00;84.50;;;;;;4948297;28;20039;-86
2023/06/25 08:08:46;;;;;;;7.47;6.45;;;21.80;84.30;;;;;;4989071;28;20046;-85
2023/06/25 08:11:12;;;;;;;6.90;5.90;;;21.80;84.10;;;;;;4976163;28;20031;-87
2023/06/25 08:13:37;;;;;;;7.13;6.10;;;23.20;84.80;;;;;;4971726;28;20045;-87
2023/06/25 08:16:03;;;;;;;7.60;6.07;;;21.80;84.00;;;;;;4955734;28;20023;-85
2023/06/25 08:18:32;;;;;;;7.53;6.28;;;21.90;84.00;;;;;;4993474;28;20026;-87
2023/06/25 08:21:56;;;;;;;;;;;;;;;;;;;;;
2023/06/25 08:24:37;;;;;;;7.18;5.97;;;21.90;84.00;;;;;;4981536;28;20037;-87
2023/06/25 08:27:11;;;;;;;7.40;6.25;;;21.90;84.60;;;;;;4949231;28;20560;-87
2023/06/25 08:30:03;;;;;;;7.15;6.07;;;21.90;84.10;;;;;;4988280;28;20530;-87
2023/06/25 08:35:38;;;;;;;7.75;6.18;;;21.80;84.00;;;;;;4995945;23;20051;-87
2023/06/25 08:38:22;;;;;;;7.20;6.28;;;21.90;84.10;;;;;;4967649;28;20031;-83
2023/06/25 08:44:11;;;;;;;7.95;5.95;;;22.80;84.70;;;;;;4970592;28;20042;-86
2023/06/25 08:50:07;;;;;;;8.25;5.65;;;21.80;84.10;;;;;;4988687;28;20412;-89
2023/06/25 08:53:07;;;;;;;;;;;;;;;;;;;;;
2023/06/25 08:56:22;;;;;;;7.05;5.93;;;21.90;84.20;;;;;;4996999;28;20037;-87
2023/06/25 08:59:46;;;;;;;7.13;5.82;;;21.90;84.20;;;;;;4935346;28;20406;-88
2023/06/25 09:06:49;;;;;;;7.47;6.13;;;21.90;84.10;;;;;;4942194;28;20048;-88
2023/06/25 09:10:16;;;;;;;6.85;5.60;;;21.90;84.00;;;;;;4955660;29;20078;-88
2023/06/25 09:26:20;;;;;;;;;;;;;;;;;;;;;
2023/06/25 09:29:05;;;;;;;;;;;22.20;83.80;;;;;;4889617;29;20033;-88
2023/06/25 09:31:35;;;;;;;7.07;5.68;;;22.20;83.60;;;;;;4915792;29;19970;-87
2023/06/25 09:34:04;;;;;;;6.85;5.55;;;22.50;83.70;;;;;;4917764;29;20047;-85
2023/06/25 09:36:33;;;;;;;6.90;5.20;;;22.30;83.40;;;;;;4952305;28;20057;-88
2023/06/25 09:38:59;;;;;;;6.45;5.35;;;22.30;83.30;;;;;;4979462;28;20113;-87
2023/06/25 09:41:37;;;;;;;;;;;;;;;;;;;;;
2023/06/25 09:44:30;;;;;;;6.93;5.22;;;23.40;83.80;;;;;;4979105;28;20791;-87
2023/06/25 09:47:37;;;;;;;6.57;4.97;;;22.20;83.10;;;;;;4974320;28;20031;-87
2023/06/25 09:50:18;;;;;;;6.40;5.00;;;22.40;83.20;;;;;;4994954;28;20022;-86
2023/06/25 09:52:54;;;;;;;6.57;5.40;;;22.30;83.10;;;;;;4977261;28;20038;-87
2023/06/25 09:55:21;;;;;;;6.88;5.55;;;22.60;83.30;;;;;;4973965;28;20375;-87
2023/06/25 09:57:56;;;;;;;6.20;4.90;;;22.40;83.20;;;;;;4974141;28;20034;-87
2023/06/25 10:00:26;;;;;;;6.75;5.00;;;22.20;83.10;;;;;;4977092;28;20019;-87
2023/06/25 10:03:26;;;;;;;6.22;4.80;;;22.30;83.30;;;;;;4976329;28;20033;-88
2023/06/25 10:06:00;;;;;;;6.45;5.10;;;22.30;83.40;;;;;;4985593;28;20395;-86
2023/06/25 10:08:44;;;;;;;6.32;4.82;;;22.20;83.50;;;;;;4971543;28;20387;-87
2023/06/25 10:11:17;;;;;;;6.63;5.07;;;22.30;83.60;;;;;;4977483;28;20010;-89
2023/06/25 10:13:45;;;;;;;6.63;5.13;;;22.30;83.60;;;;;;4962335;28;20129;-83
2023/06/25 10:16:17;;;;;;;6.28;4.88;;;22.70;83.80;;;;;;4986699;28;20038;-84
2023/06/25 10:18:44;;;;;;;7.15;5.20;;;22.30;83.60;;;;;;4997340;28;20026;-83
2023/06/25 10:21:17;;;;;;;6.90;5.32;;;22.30;83.60;;;;;;4994430;28;20018;-87
2023/06/25 10:23:51;;;;;;;7.22;5.55;;;22.30;83.40;;;;;;4971447;28;20034;-87
2023/06/25 10:26:17;;;;;;;6.55;4.93;;;22.30;83.50;;;;;;4970231;28;20029;-86
2023/06/25 10:28:50;;;;;;;7.38;5.13;;;22.30;83.50;;;;;;4992095;28;20110;-84
2023/06/25 10:31:17;;;;;;;6.88;5.30;;;22.30;83.50;;;;;;4975042;28;20036;-87
2023/06/25 10:33:43;;;;;;;7.45;5.18;;;22.30;83.50;;;;;;4973486;28;20045;-86
2023/06/25 10:36:10;;;;;;;7.57;5.68;;;22.30;83.50;;;;;;4967132;28;20031;-85
2023/06/25 10:38:36;;;;;;;9.68;5.72;;;22.30;83.10;;;;;;4991657;28;20022;-87
2023/06/25 10:41:01;;;;;;;9.35;5.57;;;22.30;82.40;;;;;;4977501;28;20532;-86
2023/06/25 10:43:27;;;;;;;7.95;5.82;;;22.30;81.90;;;;;;4977730;28;20122;-87
2023/06/25 10:45:54;;;;;;;9.10;5.57;;;22.40;82.20;;;;;;4966319;28;20077;-87
2023/06/25 10:48:21;;;;;;;7.28;5.60;;;22.40;81.80;;;;;;4994327;28;20050;-87
2023/06/25 10:50:48;;;;;;;7.45;5.53;;;22.40;82.30;;;;;;4997138;28;20474;-87
2023/06/25 10:53:19;;;;;;;8.82;5.50;;;22.40;82.30;;;;;;4997742;28;20478;-87
2023/06/25 10:55:46;;;;;;;;;;;22.40;82.30;;;;;;4989777;28;20038;-87
2023/06/25 10:58:24;;;;;;;7.45;5.05;;;22.40;82.30;;;;;;4980829;28;19909;-87
2023/06/25 11:00:54;;;;;;;8.55;5.90;;;22.50;82.20;;;;;;4981030;28;20073;-87
2023/06/25 11:03:20;;;;;;;9.73;5.90;;;22.40;82.20;;;;;;4980747;28;20046;-87
2023/06/25 11:05:46;;;;;;;9.30;5.72;;;22.40;82.10;;;;;;4977845;28;20019;-87
2023/06/25 11:08:13;;;;;;;9.20;5.78;;;22.40;82.10;;;;;;4963345;28;20034;-87
2023/06/25 11:10:39;;;;;;;9.73;5.60;;;22.40;82.10;;;;;;4996655;28;20053;-87
2023/06/25 11:13:09;;;;;;;8.27;5.60;;;22.40;82.10;;;;;;4996611;28;20038;-87
2023/06/25 11:15:35;;;;;;;7.63;5.15;;;22.40;82.00;;;;;;4983212;28;20031;-87
2023/06/25 11:18:03;;;;;;;9.13;5.70;;;22.40;82.10;;;;;;4979823;28;20483;-87
2023/06/25 11:20:29;;;;;;;9.95;5.82;;;22.40;82.00;;;;;;4979809;28;20493;-87
2023/06/25 11:22:55;;;;;;;8.20;5.13;;;22.40;81.90;;;;;;4979737;28;20133;-88
2023/06/25 11:25:21;;;;;;;7.55;5.43;;;22.40;82.00;;;;;;4972967;28;20054;-88
2023/06/25 11:27:48;;;;;;;9.43;5.90;;;22.30;82.50;;;;;;4968234;28;20057;-87
2023/06/25 11:30:14;;;;;;;7.85;5.50;;;22.30;82.20;;;;;;4996119;28;20026;-87
2023/06/25 11:32:40;;;;;;;8.32;5.47;;;22.30;82.30;;;;;;4995754;28;20398;-87
2023/06/25 11:35:13;;;;;;;8.35;6.10;;;22.30;82.40;;;;;;4986629;28;20035;-87
2023/06/25 11:37:49;;;;;;;9.65;5.50;;;22.30;82.50;;;;;;4959460;28;20035;-87
2023/06/25 11:40:28;;;;;;;8.55;5.45;;;22.30;82.60;;;;;;4978780;28;20061;-87
2023/06/25 11:42:54;;;;;;;7.28;5.05;;;22.20;82.60;;;;;;4996624;28;20034;-87
2023/06/25 11:45:21;;;;;;;8.73;5.82;;;22.20;82.80;;;;;;4984842;28;20038;-87
2023/06/25 11:47:50;;;;;;;8.68;5.97;;;22.30;82.70;;;;;;4977691;28;20113;-87
2023/06/25 11:50:16;;;;;;;7.95;5.68;;;22.20;82.90;;;;;;4996020;28;20030;-87
2023/06/25 11:52:42;;;;;;;9.07;5.43;;;22.20;82.90;;;;;;4978289;28;20113;-88
2023/06/25 11:55:08;;;;;;;8.63;5.90;;;22.20;83.00;;;;;;4974845;28;20602;-87
2023/06/25 11:57:34;;;;;;;8.80;5.32;;;22.20;83.00;;;;;;4975291;28;20050;-86
2023/06/25 11:59:59;;;;;;;7.75;5.60;;;22.20;82.90;;;;;;4999323;28;20375;-88
2023/06/25 12:02:25;;;;;;;7.70;5.22;;;22.20;83.00;;;;;;4986045;28;20029;-88
2023/06/25 12:04:52;;;;;;;7.93;5.55;;;22.20;83.00;;;;;;4995477;28;20023;-88
2023/06/25 12:07:18;;;;;;;7.80;5.60;;;22.20;83.10;;;;;;4979192;28;20037;-87
2023/06/25 12:09:43;;;;;;;9.35;5.90;;;22.20;83.10;;;;;;4984710;28;20535;-87
2023/06/25 12:12:09;;;;;;;7.53;5.55;;;22.20;83.20;;;;;;5000728;28;20163;-87
2023/06/25 12:14:35;;;;;;;7.22;5.50;;;22.20;83.20;;;;;;4995839;28;20062;-87
2023/06/25 12:17:00;;;;;;;8.02;5.32;;;22.20;83.20;;;;;;4993429;28;20026;-87
2023/06/25 12:19:26;;;;;;;8.23;5.20;;;22.20;83.20;;;;;;4983095;28;20073;-87
2023/06/25 12:21:51;;;;;;;7.93;5.20;;;22.10;83.00;;;;;;4983323;28;20406;-87
2023/06/25 12:24:17;;;;;;;7.72;5.32;;;22.20;83.00;;;;;;4982559;28;20030;-88
2023/06/25 12:26:42;;;;;;;8.35;5.72;;;22.20;82.90;;;;;;4978543;28;20026;-88
2023/06/25 12:29:08;;;;;;;8.48;5.47;;;22.20;82.80;;;;;;5000103;28;20427;-88
2023/06/25 12:31:33;;;;;;;8.60;5.40;;;22.20;82.80;;;;;;4981965;28;20035;-87
2023/06/25 12:33:58;;;;;;;7.55;5.20;;;22.30;82.70;;;;;;4996620;28;20361;-87
2023/06/25 12:36:24;;;;;;;8.88;5.22;;;22.30;82.80;;;;;;4990592;28;20031;-87
2023/06/25 12:38:49;;;;;;;7.07;5.32;;;22.30;82.70;;;;;;4981500;28;20027;-87
2023/06/25 12:41:15;;;;;;;7.72;5.30;;;22.30;82.80;;;;;;4999393;28;20427;-87
2023/06/25 12:43:40;;;;;;;7.75;5.50;;;22.30;82.70;;;;;;4978839;28;20019;-87
2023/06/25 12:46:06;;;;;;;8.25;5.15;;;22.30;82.80;;;;;;4981050;28;20060;-88
2023/06/25 12:48:32;;;;;;;7.47;5.55;;;22.20;82.80;;;;;;5000843;28;20471;-88
2023/06/25 12:50:57;;;;;;;7.65;5.15;;;22.20;82.80;;;;;;4983787;28;20550;-88
2023/06/25 12:53:23;;;;;;;7.28;5.15;;;22.20;82.90;;;;;;4984223;28;20553;-88
2023/06/25 12:55:48;;;;;;;8.70;5.55;;;22.30;83.00;;;;;;4984320;28;20030;-88
2023/06/25 12:58:14;;;;;;;7.70;5.43;;;22.10;83.00;;;;;;4983573;28;20066;-87
2023/06/25 13:00:39;;;;;;;7.90;5.22;;;22.10;83.00;;;;;;5001144;28;20081;-87
2023/06/25 13:03:05;;;;;;;7.78;5.55;;;22.10;83.20;;;;;;4983395;28;20388;-87
2023/06/25 13:05:30;;;;;;;7.90;5.88;;;22.10;83.30;;;;;;4979772;28;20019;-87
2023/06/25 13:07:56;;;;;;;8.43;5.65;;;22.10;83.30;;;;;;4979669;28;20166;-87
2023/06/25 13:10:21;;;;;;;8.48;5.85;;;22.10;83.50;;;;;;4998952;28;20030;-87
2023/06/25 13:12:47;;;;;;;7.57;5.25;;;22.00;83.50;;;;;;4998597;28;20026;-87
2023/06/25 13:15:12;;;;;;;8.40;5.72;;;22.00;83.60;;;;;;4990429;28;21236;-88
2023/06/25 13:17:38;;;;;;;7.97;5.43;;;22.00;83.70;;;;;;4997719;28;20034;-87
2023/06/25 13:20:04;;;;;;;7.40;5.20;;;22.00;83.70;;;;;;4999868;28;20109;-87
2023/06/25 13:22:30;;;;;;;7.55;5.20;;;22.00;83.80;;;;;;4981484;28;20019;-88
2023/06/25 13:24:55;;;;;;;7.60;5.20;;;22.00;83.80;;;;;;4994468;28;20482;-87
2023/06/25 13:27:21;;;;;;;7.60;5.40;;;22.00;83.90;;;;;;4996467;28;20118;-87